Alvarado, Minnesota
Current Conditions -  °F | °C
As of 7:53 AM on Monday 24 Nov 2014 (Local Time) from KGFK Reporting Station
Overcast Overcast  
Wind Chill: -25°   Ceiling: 1700
Heat Index: -14°   Visibility: 10mi
Dew Point: -17°   Wind: 22mph
Humidity: 80%   Direction: 340°NNW
Pressure: 29.72"   Gusts: 30mph
Location:  48.19°N, 97°W
Report Text: KGFK 241353Z 34019G26KT 10SM OVC017 M14/M17 A2972 RMK AO2 PK WND 35031/1341 SLP083 T11391167
Loading
Personal Weather Stations






























Interactive Weather Map New forecast layout! Learn more

10-Day Weather Forecast

Advertisements
Track Severe Weather on mobile